Time;durP1;ratioP1;P1;durP2;ratioP2;P2;SDS_P1;SDS_P2;PMS_P1;PMS_P2;Temp;Humidity;BMP_temperature;BMP_pressure;BME280_temperature;BME280_humidity;BME280_pressure;Samples;Min_cycle;Max_cycle;Signal;HPM_P1;HPM_P2
2023/04/08 00:01:37;;;;;;;11.30;7.68;;;4.20;99.90;;;;;;5000043;28;20045;-88
2023/04/08 00:04:03;;;;;;;11.07;7.60;;;4.10;99.90;;;;;;4999560;28;20030;-88
2023/04/08 00:06:30;;;;;;;10.30;7.93;;;4.10;99.90;;;;;;5000833;28;20045;-88
2023/04/08 00:08:56;;;;;;;11.85;7.97;;;4.10;99.90;;;;;;4986096;28;20076;-88
2023/04/08 00:11:22;;;;;;;12.07;8.50;;;4.10;99.90;;;;;;4986440;28;20034;-88
2023/04/08 00:13:50;;;;;;;12.25;8.65;;;4.00;99.90;;;;;;4985912;28;20061;-87
2023/04/08 00:16:16;;;;;;;12.35;8.73;;;4.10;99.90;;;;;;4986779;28;20552;-88
2023/04/08 00:18:41;;;;;;;13.00;9.05;;;4.10;99.90;;;;;;4987029;28;20057;-87
2023/04/08 00:21:07;;;;;;;13.95;9.27;;;4.00;99.90;;;;;;4986943;28;20033;-87
2023/04/08 00:23:33;;;;;;;15.32;9.25;;;4.00;99.90;;;;;;4985797;28;20092;-88
2023/04/08 00:25:59;;;;;;;17.20;9.43;;;4.00;99.90;;;;;;5001107;28;20034;-89
2023/04/08 00:28:25;;;;;;;14.45;9.40;;;4.00;99.90;;;;;;4984954;28;20069;-87
2023/04/08 00:30:54;;;;;;;11.55;9.20;;;4.00;99.90;;;;;;4983841;28;20033;-87
2023/04/08 00:33:20;;;;;;;13.40;9.98;;;4.00;99.90;;;;;;4986442;28;20094;-89
2023/04/08 00:35:47;;;;;;;14.50;9.98;;;3.90;99.90;;;;;;5000292;28;20045;-88
2023/04/08 00:38:12;;;;;;;14.23;9.68;;;3.90;99.90;;;;;;4999733;28;20058;-88
2023/04/08 00:40:38;;;;;;;15.73;10.90;;;3.90;99.90;;;;;;4985435;28;20377;-88
2023/04/08 00:43:04;;;;;;;14.55;10.52;;;3.90;99.90;;;;;;4983162;28;20030;-87
2023/04/08 00:45:30;;;;;;;13.93;10.02;;;3.90;99.90;;;;;;5000203;28;20041;-87
2023/04/08 00:47:58;;;;;;;14.65;9.93;;;3.80;99.90;;;;;;5001552;28;20324;-87
2023/04/08 00:50:24;;;;;;;17.20;10.32;;;3.80;99.90;;;;;;4986586;28;20052;-88
2023/04/08 00:52:50;;;;;;;15.48;10.68;;;3.80;99.90;;;;;;4988353;28;20038;-89
2023/04/08 00:55:16;;;;;;;13.98;10.88;;;3.70;99.90;;;;;;4987347;28;20575;-87
2023/04/08 00:57:41;;;;;;;14.80;11.00;;;3.70;99.90;;;;;;4985812;28;20103;-88
2023/04/08 01:00:08;;;;;;;15.40;11.10;;;3.70;99.90;;;;;;5000834;28;20407;-88
2023/04/08 01:03:17;;;;;;;17.95;10.60;;;3.60;99.90;;;;;;4987229;28;20045;-86
2023/04/08 01:05:55;;;;;;;16.63;11.23;;;3.60;99.90;;;;;;4940897;28;20054;-87
2023/04/08 01:08:22;;;;;;;16.45;11.35;;;3.60;99.90;;;;;;4988181;28;20042;-89
2023/04/08 01:10:52;;;;;;;14.52;11.18;;;3.60;99.90;;;;;;4986670;28;20034;-87
2023/04/08 01:13:21;;;;;;;19.08;11.43;;;3.60;99.90;;;;;;4982784;28;20038;-88
2023/04/08 01:15:48;;;;;;;19.85;11.88;;;3.60;99.90;;;;;;4985247;28;20133;-89
2023/04/08 01:18:16;;;;;;;19.05;11.65;;;3.60;99.90;;;;;;5002138;28;20402;-89
2023/04/08 01:20:43;;;;;;;17.40;12.00;;;3.60;99.90;;;;;;4984840;28;20041;-88
2023/04/08 01:23:19;;;;;;;17.92;11.90;;;3.50;99.90;;;;;;4999776;28;20038;-88
2023/04/08 01:25:53;;;;;;;16.35;11.65;;;3.50;99.90;;;;;;4983599;28;20073;-87
2023/04/08 01:28:21;;;;;;;17.47;11.27;;;3.50;99.90;;;;;;4981680;28;20066;-87
2023/04/08 01:30:48;;;;;;;16.20;11.75;;;3.40;99.90;;;;;;4984435;28;20038;-88
2023/04/08 01:33:21;;;;;;;19.35;12.52;;;3.40;99.90;;;;;;4994889;28;21024;-88
2023/04/08 01:35:47;;;;;;;18.65;12.73;;;3.40;99.90;;;;;;4985810;28;20045;-89
2023/04/08 01:38:19;;;;;;;16.70;12.32;;;3.30;99.90;;;;;;4984287;28;20064;-88
2023/04/08 01:40:49;;;;;;;17.60;12.32;;;3.30;99.90;;;;;;4984154;28;20373;-89
2023/04/08 01:43:16;;;;;;;17.83;12.60;;;3.30;99.90;;;;;;4981730;28;20403;-88
2023/04/08 01:45:47;;;;;;;18.00;13.95;;;3.30;99.90;;;;;;4985312;28;20045;-88
2023/04/08 01:48:14;;;;;;;19.20;12.55;;;3.40;99.90;;;;;;4983521;28;20452;-88
2023/04/08 01:50:44;;;;;;;19.90;13.05;;;3.40;99.90;;;;;;5001560;28;20113;-88
2023/04/08 01:53:11;;;;;;;18.25;12.38;;;3.30;99.90;;;;;;5000719;28;20360;-88
2023/04/08 01:55:38;;;;;;;18.42;12.65;;;3.30;99.90;;;;;;4985972;28;20171;-88
2023/04/08 01:58:10;;;;;;;19.52;13.75;;;3.30;99.90;;;;;;4983263;28;20045;-88
2023/04/08 02:00:37;;;;;;;18.33;12.55;;;3.20;99.90;;;;;;4984160;28;20196;-87
2023/04/08 02:03:05;;;;;;;19.92;13.07;;;3.20;99.90;;;;;;4983861;28;20043;-88
2023/04/08 02:05:31;;;;;;;20.88;14.05;;;3.20;99.90;;;;;;5001905;28;20038;-88
2023/04/08 02:07:56;;;;;;;19.60;13.88;;;3.20;99.90;;;;;;4998679;28;20045;-88
2023/04/08 02:10:22;;;;;;;22.95;13.63;;;3.20;99.90;;;;;;4981751;28;20851;-88
2023/04/08 02:12:48;;;;;;;23.88;14.57;;;3.20;99.90;;;;;;4983888;28;20042;-87
2023/04/08 02:15:15;;;;;;;21.15;14.35;;;3.10;99.90;;;;;;4979913;28;20050;-87
2023/04/08 02:18:14;;;;;;;20.33;14.63;;;3.20;99.90;;;;;;4981042;28;20161;-89
2023/04/08 02:20:49;;;;;;;21.50;14.73;;;3.20;99.90;;;;;;5000254;28;20069;-88
2023/04/08 02:23:26;;;;;;;23.85;14.43;;;3.20;99.90;;;;;;4999247;28;20038;-88
2023/04/08 02:25:55;;;;;;;21.48;14.65;;;3.20;99.90;;;;;;4981697;28;20777;-89
2023/04/08 02:28:22;;;;;;;23.52;15.27;;;3.10;99.90;;;;;;4996782;28;20095;-88
2023/04/08 02:30:50;;;;;;;24.40;16.45;;;3.10;99.90;;;;;;4982009;28;20646;-88
2023/04/08 02:33:19;;;;;;;23.13;14.85;;;3.10;99.90;;;;;;4986725;28;20042;-88
2023/04/08 02:35:46;;;;;;;22.83;14.70;;;3.10;99.90;;;;;;5002464;28;20041;-87
2023/04/08 02:38:12;;;;;;;28.08;16.58;;;3.10;99.90;;;;;;5001803;28;20204;-88
2023/04/08 02:40:37;;;;;;;25.13;15.50;;;3.10;99.90;;;;;;4987114;28;20125;-88
2023/04/08 02:43:06;;;;;;;24.08;16.35;;;3.10;99.90;;;;;;5000353;28;20165;-88
2023/04/08 02:45:42;;;;;;;24.75;16.13;;;3.10;99.90;;;;;;4985491;28;20042;-88
2023/04/08 02:48:09;;;;;;;23.67;15.77;;;3.10;99.90;;;;;;4985266;28;20033;-89
2023/04/08 02:50:34;;;;;;;26.20;16.75;;;3.10;99.90;;;;;;4984401;28;20030;-89
2023/04/08 02:53:03;;;;;;;26.45;16.40;;;3.10;99.90;;;;;;4985890;28;20048;-89
2023/04/08 02:55:29;;;;;;;28.33;18.00;;;3.10;99.90;;;;;;4987447;28;20046;-89
2023/04/08 02:57:54;;;;;;;28.63;18.17;;;3.10;99.90;;;;;;4984926;28;20046;-89
2023/04/08 03:00:20;;;;;;;24.75;16.38;;;3.10;99.90;;;;;;4986222;28;20041;-89
2023/04/08 03:02:46;;;;;;;26.73;16.60;;;3.00;99.90;;;;;;5004780;28;20046;-89
2023/04/08 03:05:12;;;;;;;27.42;17.05;;;3.00;99.90;;;;;;5004120;28;20054;-89
2023/04/08 03:07:37;;;;;;;27.73;16.90;;;3.00;99.90;;;;;;5003867;28;20038;-89
2023/04/08 03:10:07;;;;;;;26.10;16.95;;;3.00;99.90;;;;;;4988222;28;20037;-89
2023/04/08 03:12:32;;;;;;;25.65;16.38;;;3.00;99.90;;;;;;4983389;28;20042;-89
2023/04/08 03:14:59;;;;;;;29.80;17.75;;;3.00;99.90;;;;;;4990271;28;20095;-90
2023/04/08 03:17:25;;;;;;;29.63;17.85;;;2.90;99.90;;;;;;5000714;28;20052;-88
2023/04/08 03:19:51;;;;;;;29.45;18.65;;;2.90;99.90;;;;;;4989349;28;20053;-89
2023/04/08 03:22:16;;;;;;;26.25;16.48;;;2.90;99.90;;;;;;4989521;28;20078;-89
2023/04/08 03:24:42;;;;;;;25.95;17.02;;;2.80;99.90;;;;;;5005662;28;20132;-88
2023/04/08 03:27:11;;;;;;;27.33;17.42;;;2.80;99.90;;;;;;5003700;28;20064;-89
2023/04/08 03:29:37;;;;;;;27.63;17.27;;;2.80;99.90;;;;;;4988055;28;20064;-89
2023/04/08 03:32:03;;;;;;;27.35;16.98;;;2.80;99.90;;;;;;4987697;28;20458;-88
2023/04/08 03:34:28;;;;;;;28.30;16.80;;;2.80;99.90;;;;;;5003422;28;20049;-87
2023/04/08 03:36:54;;;;;;;28.35;17.80;;;2.80;99.90;;;;;;4987179;28;20125;-87
2023/04/08 03:39:20;;;;;;;27.80;18.08;;;2.80;99.90;;;;;;5002638;28;20583;-87
2023/04/08 03:41:46;;;;;;;27.83;18.15;;;2.80;99.90;;;;;;5001638;28;20107;-88
2023/04/08 03:44:14;;;;;;;32.53;18.80;;;2.80;99.90;;;;;;4984586;28;20042;-88
2023/04/08 03:46:40;;;;;;;32.05;19.15;;;2.90;99.90;;;;;;5005011;28;20399;-88
2023/04/08 03:49:06;;;;;;;31.63;19.75;;;2.90;99.90;;;;;;4986208;28;20049;-87
2023/04/08 03:51:32;;;;;;;29.85;19.15;;;2.90;99.90;;;;;;4988205;28;20121;-87
2023/04/08 03:53:57;;;;;;;33.53;19.10;;;2.90;99.90;;;;;;5003398;28;20030;-88
2023/04/08 03:56:24;;;;;;;31.77;19.67;;;3.00;99.90;;;;;;5001836;28;20030;-89
2023/04/08 03:58:50;;;;;;;31.30;19.77;;;3.00;99.90;;;;;;5001783;28;20038;-88
2023/04/08 04:01:16;;;;;;;32.22;19.05;;;2.90;99.90;;;;;;4986083;28;20042;-88
2023/04/08 04:03:41;;;;;;;31.50;18.88;;;2.90;99.90;;;;;;4986950;28;20045;-88
2023/04/08 04:06:07;;;;;;;32.90;19.27;;;3.00;99.90;;;;;;4987467;28;20037;-87
2023/04/08 04:08:33;;;;;;;32.85;19.42;;;2.90;99.90;;;;;;4999435;28;20099;-87
2023/04/08 04:10:59;;;;;;;32.17;20.13;;;3.00;99.90;;;;;;4987036;28;20045;-88
2023/04/08 04:13:24;;;;;;;33.72;19.40;;;2.90;99.90;;;;;;4986565;28;20060;-88
2023/04/08 04:15:50;;;;;;;31.23;19.48;;;2.90;99.90;;;;;;4985764;28;20380;-88
2023/04/08 04:18:16;;;;;;;36.53;20.60;;;3.00;99.90;;;;;;4987632;28;20034;-87
2023/04/08 04:20:42;;;;;;;30.42;18.92;;;3.00;99.90;;;;;;5001264;28;20114;-88
2023/04/08 04:23:11;;;;;;;34.40;20.13;;;3.00;99.90;;;;;;5000719;28;20038;-87
2023/04/08 04:25:40;;;;;;;34.90;20.38;;;2.90;99.90;;;;;;4987307;28;20079;-87
2023/04/08 04:28:06;;;;;;;47.70;26.05;;;2.90;99.90;;;;;;4984718;28;20034;-88
2023/04/08 04:30:32;;;;;;;47.20;28.17;;;2.90;99.90;;;;;;5002599;28;20046;-88
2023/04/08 04:32:58;;;;;;;49.15;28.65;;;2.90;99.90;;;;;;5001505;28;20427;-87
2023/04/08 04:35:24;;;;;;;42.67;25.92;;;2.90;99.90;;;;;;4986554;28;20073;-87
2023/04/08 04:37:50;;;;;;;41.58;21.67;;;3.00;99.90;;;;;;4985139;28;20058;-87
2023/04/08 04:40:16;;;;;;;38.05;22.10;;;3.10;99.90;;;;;;4982865;28;20053;-87
2023/04/08 04:42:42;;;;;;;43.40;22.38;;;3.10;99.90;;;;;;4999561;28;20053;-87
2023/04/08 04:45:08;;;;;;;39.30;20.83;;;3.20;99.90;;;;;;4987253;28;20081;-88
2023/04/08 04:47:34;;;;;;;42.08;22.17;;;3.20;99.90;;;;;;5001899;28;20099;-87
2023/04/08 04:50:00;;;;;;;38.83;21.70;;;3.30;99.90;;;;;;4998686;28;20483;-88
2023/04/08 04:52:26;;;;;;;40.65;22.40;;;3.30;99.90;;;;;;4995276;28;20045;-87
2023/04/08 04:54:56;;;;;;;40.80;22.38;;;3.20;99.90;;;;;;5002931;28;20042;-91
2023/04/08 04:57:22;;;;;;;37.70;20.95;;;3.30;99.90;;;;;;5001234;28;20232;-91
2023/04/08 04:59:47;;;;;;;40.10;23.10;;;3.30;99.90;;;;;;4990487;28;20034;-92
2023/04/08 05:02:13;;;;;;;37.78;21.85;;;3.40;99.90;;;;;;4990056;28;20048;-92
2023/04/08 05:04:39;;;;;;;40.17;22.23;;;3.30;99.90;;;;;;4986997;28;20038;-92
2023/04/08 05:07:05;;;;;;;37.53;20.88;;;3.30;99.90;;;;;;4989365;28;20034;-93
2023/04/08 05:09:30;;;;;;;38.28;21.15;;;3.40;99.90;;;;;;4989188;28;20486;-92
2023/04/08 05:11:59;;;;;;;40.20;22.15;;;3.40;99.90;;;;;;4988455;28;20041;-93
2023/04/08 05:14:28;;;;;;;41.28;21.15;;;3.50;99.90;;;;;;4988502;28;20845;-91
2023/04/08 05:16:54;;;;;;;41.10;21.58;;;3.40;99.90;;;;;;4988389;28;20164;-91
2023/04/08 05:19:20;;;;;;;39.53;22.00;;;3.40;99.90;;;;;;4988118;28;20570;-93
2023/04/08 05:21:45;;;;;;;40.60;21.33;;;3.50;99.90;;;;;;4988964;28;20042;-92
2023/04/08 05:24:11;;;;;;;36.45;20.88;;;3.50;99.90;;;;;;4987077;28;20046;-92
2023/04/08 05:26:37;;;;;;;36.90;20.50;;;3.50;99.90;;;;;;4986352;28;20045;-91
2023/04/08 05:29:02;;;;;;;40.58;21.58;;;3.50;99.90;;;;;;4987347;28;20084;-92
2023/04/08 05:31:28;;;;;;;38.88;21.65;;;3.60;99.90;;;;;;4989049;28;20431;-91
2023/04/08 05:33:53;;;;;;;39.70;21.55;;;3.60;99.90;;;;;;5001151;28;20037;-93
2023/04/08 05:36:19;;;;;;;46.65;23.35;;;3.60;99.90;;;;;;4983471;28;20038;-91
2023/04/08 05:38:45;;;;;;;44.00;23.55;;;3.60;99.90;;;;;;4987118;28;20113;-91
2023/04/08 05:41:11;;;;;;;39.25;21.33;;;3.70;99.90;;;;;;4988451;28;20569;-91
2023/04/08 05:43:36;;;;;;;39.47;22.20;;;3.70;99.90;;;;;;5002593;28;20053;-90
2023/04/08 05:46:07;;;;;;;38.35;20.90;;;3.80;99.90;;;;;;4986187;28;20041;-90
2023/04/08 05:48:33;;;;;;;41.42;21.58;;;3.80;99.90;;;;;;4982665;28;20124;-89
2023/04/08 05:50:59;;;;;;;39.83;22.05;;;4.00;99.90;;;;;;4986644;28;20111;-89
2023/04/08 05:53:25;;;;;;;35.42;20.58;;;4.20;99.90;;;;;;4983696;28;20042;-87
2023/04/08 05:55:50;;;;;;;38.72;21.48;;;4.30;99.90;;;;;;4983361;28;20038;-89
2023/04/08 05:58:16;;;;;;;40.10;23.33;;;4.50;99.90;;;;;;4979939;28;20033;-86
2023/04/08 06:00:42;;;;;;;42.05;23.83;;;4.60;99.90;;;;;;4981356;28;20054;-87
2023/04/08 06:03:07;;;;;;;41.60;23.88;;;4.80;99.90;;;;;;4997968;28;20065;-86
2023/04/08 06:05:36;;;;;;;43.15;24.10;;;5.00;99.90;;;;;;5000524;28;20452;-87
2023/04/08 06:08:01;;;;;;;42.45;24.85;;;5.10;99.90;;;;;;4986356;28;20085;-86
2023/04/08 06:10:27;;;;;;;45.70;25.42;;;5.40;99.90;;;;;;5003053;28;20034;-86
2023/04/08 06:12:53;;;;;;;45.97;26.50;;;5.40;99.90;;;;;;4983609;28;20507;-86
2023/04/08 06:15:18;;;;;;;44.92;25.98;;;5.70;99.90;;;;;;5000373;28;20057;-86
2023/04/08 06:17:44;;;;;;;45.67;25.10;;;5.90;99.90;;;;;;4988007;28;20501;-86
2023/04/08 06:20:10;;;;;;;40.15;24.90;;;5.90;99.90;;;;;;4986915;28;20396;-87
2023/04/08 06:22:39;;;;;;;41.83;24.73;;;6.00;99.90;;;;;;5000932;28;20101;-86
2023/04/08 06:25:05;;;;;;;38.55;23.08;;;5.90;99.90;;;;;;4998517;28;20054;-86
2023/04/08 06:27:31;;;;;;;41.55;24.20;;;6.00;99.90;;;;;;4999185;28;20435;-86
2023/04/08 06:29:57;;;;;;;36.85;22.10;;;6.10;99.90;;;;;;5003123;28;20045;-86
2023/04/08 06:32:22;;;;;;;36.38;22.73;;;6.20;99.90;;;;;;5002067;28;20506;-86
2023/04/08 06:34:48;;;;;;;33.75;22.85;;;6.20;99.90;;;;;;4987638;28;20088;-85
2023/04/08 06:37:14;;;;;;;34.95;22.40;;;6.00;99.90;;;;;;5002932;28;20057;-86
2023/04/08 06:39:43;;;;;;;38.22;22.27;;;6.00;99.90;;;;;;4985998;28;20642;-86
2023/04/08 06:42:09;;;;;;;33.25;21.50;;;6.10;99.90;;;;;;5002666;28;20258;-86
2023/04/08 06:44:35;;;;;;;36.22;21.27;;;6.10;99.90;;;;;;4999967;28;20040;-86
2023/04/08 06:47:00;;;;;;;31.90;20.20;;;6.40;99.90;;;;;;4987759;28;20042;-86
2023/04/08 06:49:26;;;;;;;33.72;21.73;;;6.50;99.90;;;;;;5001359;28;20138;-86
2023/04/08 06:51:52;;;;;;;31.10;20.90;;;6.60;99.90;;;;;;4999054;28;20030;-85
2023/04/08 06:54:17;;;;;;;34.45;20.73;;;6.60;99.90;;;;;;4982073;28;20467;-86
2023/04/08 06:56:43;;;;;;;29.65;19.05;;;6.60;99.90;;;;;;4986255;28;20053;-85
2023/04/08 06:59:09;;;;;;;29.52;20.10;;;6.60;99.90;;;;;;4999416;28;20045;-86
2023/04/08 07:01:34;;;;;;;29.42;19.38;;;6.90;99.90;;;;;;5003837;28;20088;-86
2023/04/08 07:04:01;;;;;;;28.67;18.88;;;7.00;99.90;;;;;;4998357;28;20042;-85
2023/04/08 07:06:26;;;;;;;28.50;19.45;;;7.10;99.90;;;;;;4985632;28;20125;-86
2023/04/08 07:08:52;;;;;;;26.70;18.90;;;7.30;99.90;;;;;;4982006;28;20507;-86
2023/04/08 07:11:18;;;;;;;27.23;17.45;;;7.20;99.90;;;;;;5000997;28;20096;-85
2023/04/08 07:13:44;;;;;;;24.73;17.17;;;7.30;99.90;;;;;;4997607;28;20052;-86
2023/04/08 07:16:09;;;;;;;27.13;18.30;;;7.30;99.90;;;;;;5001087;28;20049;-85
2023/04/08 07:18:36;;;;;;;27.02;18.67;;;7.20;99.90;;;;;;4982491;28;20124;-86
2023/04/08 07:21:02;;;;;;;26.67;17.92;;;7.20;99.90;;;;;;4997374;28;20513;-85
2023/04/08 07:23:27;;;;;;;28.10;18.30;;;7.30;99.90;;;;;;4997167;28;20149;-85
2023/04/08 07:25:53;;;;;;;28.13;17.33;;;7.50;99.90;;;;;;5002198;28;20053;-86
2023/04/08 07:28:19;;;;;;;26.23;17.23;;;7.40;99.90;;;;;;4981873;28;20042;-85
2023/04/08 07:30:46;;;;;;;28.55;18.60;;;7.30;99.90;;;;;;5001847;28;20077;-86
2023/04/08 07:33:11;;;;;;;25.25;17.98;;;7.30;99.90;;;;;;4999171;28;20050;-87
2023/04/08 07:35:37;;;;;;;27.65;18.73;;;7.40;99.90;;;;;;5000453;28;20072;-86
2023/04/08 07:38:03;;;;;;;26.92;18.50;;;7.80;99.90;;;;;;4990951;28;20188;-86
2023/04/08 07:40:29;;;;;;;28.67;19.63;;;7.90;99.90;;;;;;4993890;28;20073;-85
2023/04/08 07:42:55;;;;;;;30.70;20.58;;;8.10;99.90;;;;;;4994768;28;20045;-85
2023/04/08 07:45:21;;;;;;;29.85;20.33;;;7.90;99.90;;;;;;4983922;28;20104;-86
2023/04/08 07:47:46;;;;;;;30.42;21.00;;;8.00;99.90;;;;;;4981650;28;20042;-86
2023/04/08 07:50:12;;;;;;;30.85;20.98;;;8.10;99.90;;;;;;4994655;28;20372;-86
2023/04/08 07:52:38;;;;;;;27.17;19.88;;;8.30;99.90;;;;;;4981268;28;20124;-85
2023/04/08 07:55:04;;;;;;;26.95;18.40;;;8.30;99.90;;;;;;4978135;28;20464;-86
2023/04/08 07:57:31;;;;;;;25.88;18.58;;;8.30;99.90;;;;;;4993161;28;20452;-86
2023/04/08 07:59:59;;;;;;;26.63;18.15;;;8.60;99.90;;;;;;4991455;28;20097;-86
2023/04/08 08:02:25;;;;;;;26.20;19.33;;;8.10;99.90;;;;;;5011444;28;20682;-85
2023/04/08 08:04:51;;;;;;;27.35;19.05;;;8.40;99.90;;;;;;4994473;28;20132;-85
2023/04/08 08:07:16;;;;;;;27.00;18.63;;;8.70;99.90;;;;;;4980078;28;20035;-85
2023/04/08 08:09:42;;;;;;;20.95;15.30;;;8.80;99.90;;;;;;4982285;28;20053;-85
2023/04/08 08:12:08;;;;;;;19.20;14.32;;;8.20;99.90;;;;;;5000364;28;21057;-85
2023/04/08 08:14:33;;;;;;;18.08;13.75;;;7.80;99.90;;;;;;5000291;28;20041;-85
2023/04/08 08:17:00;;;;;;;17.10;13.35;;;8.10;99.90;;;;;;4984191;28;20049;-86
2023/04/08 08:19:26;;;;;;;17.67;13.77;;;8.30;99.90;;;;;;4985106;28;20053;-86
2023/04/08 08:21:51;;;;;;;16.90;12.77;;;8.60;99.90;;;;;;4984820;28;20046;-85
2023/04/08 08:24:17;;;;;;;19.40;14.35;;;8.50;99.90;;;;;;4985408;28;20045;-86
2023/04/08 08:26:44;;;;;;;15.15;12.27;;;8.90;99.90;;;;;;4997334;28;20041;-85
2023/04/08 08:29:10;;;;;;;14.48;11.00;;;8.20;99.90;;;;;;4994434;28;20038;-86
2023/04/08 08:31:35;;;;;;;16.00;12.35;;;8.20;99.90;;;;;;5000698;28;20672;-85
2023/04/08 08:34:01;;;;;;;15.18;11.13;;;7.80;99.90;;;;;;4983078;28;20056;-86
2023/04/08 08:36:27;;;;;;;15.70;12.65;;;8.20;99.90;;;;;;4997517;28;20130;-86
2023/04/08 08:38:53;;;;;;;16.98;12.15;;;8.10;99.90;;;;;;4995760;28;20515;-86
2023/04/08 08:41:20;;;;;;;18.38;11.52;;;8.50;99.90;;;;;;4981840;28;20057;-87
2023/04/08 08:43:46;;;;;;;15.80;11.68;;;9.00;99.90;;;;;;4996775;28;20050;-86
2023/04/08 08:46:16;;;;;;;16.65;12.05;;;9.40;99.90;;;;;;5001407;28;20038;-87
2023/04/08 08:48:42;;;;;;;13.77;11.30;;;9.90;99.90;;;;;;5000910;28;20049;-87
2023/04/08 08:51:09;;;;;;;14.70;12.02;;;10.30;99.90;;;;;;4999768;28;20220;-86
2023/04/08 08:53:35;;;;;;;17.88;12.68;;;9.70;99.90;;;;;;4984275;28;20112;-88
2023/04/08 08:56:01;;;;;;;16.27;12.32;;;9.90;99.90;;;;;;5001130;28;20153;-86
2023/04/08 08:58:27;;;;;;;15.13;11.77;;;8.80;99.90;;;;;;4981651;28;20042;-85
2023/04/08 09:00:53;;;;;;;15.27;12.23;;;8.50;99.90;;;;;;4979771;28;20053;-87
2023/04/08 09:03:23;;;;;;;16.42;13.13;;;8.40;99.90;;;;;;4982858;28;20042;-85
2023/04/08 09:05:53;;;;;;;18.60;13.38;;;8.70;99.90;;;;;;4990980;28;20050;-87
2023/04/08 09:08:40;;;;;;;17.70;12.52;;;8.40;99.90;;;;;;4984804;28;20395;-87
2023/04/08 09:11:17;;;;;;;16.98;13.43;;;8.40;99.90;;;;;;5000171;28;20124;-87
2023/04/08 09:13:44;;;;;;;20.15;14.68;;;8.20;99.90;;;;;;4982376;28;20114;-87
2023/04/08 09:16:16;;;;;;;18.80;14.27;;;8.20;99.90;;;;;;4985159;28;20042;-87
2023/04/08 09:18:47;;;;;;;18.52;14.10;;;8.70;99.90;;;;;;4998738;28;20050;-89
2023/04/08 09:21:18;;;;;;;20.42;15.15;;;8.50;99.90;;;;;;4996676;28;20044;-88
2023/04/08 09:23:50;;;;;;;22.05;15.75;;;8.50;99.90;;;;;;4981468;28;20073;-87
2023/04/08 09:26:18;;;;;;;21.08;15.77;;;8.10;99.90;;;;;;4983554;28;20395;-86
2023/04/08 09:28:57;;;;;;;19.48;15.52;;;7.90;99.90;;;;;;4996310;28;20045;-87
2023/04/08 09:31:28;;;;;;;21.35;15.10;;;7.70;99.90;;;;;;4999667;28;20037;-87
2023/04/08 09:34:01;;;;;;;22.25;15.75;;;8.00;99.90;;;;;;4998588;28;20176;-86
2023/04/08 09:36:27;;;;;;;21.50;15.38;;;7.90;99.90;;;;;;4981860;28;20450;-87
2023/04/08 09:38:57;;;;;;;21.60;15.85;;;8.30;99.90;;;;;;4992190;28;20157;-85
2023/04/08 09:41:26;;;;;;;22.60;15.77;;;8.80;99.90;;;;;;5000390;28;20054;-85
2023/04/08 09:43:54;;;;;;;20.35;14.93;;;9.30;99.90;;;;;;5003574;28;20148;-86
2023/04/08 09:46:40;;;;;;;18.88;14.38;;;9.10;99.90;;;;;;5002359;28;20476;-87
2023/04/08 09:49:12;;;;;;;21.73;15.02;;;9.20;99.90;;;;;;5020078;28;20093;-85
2023/04/08 09:51:59;;;;;;;19.27;14.50;;;9.30;99.90;;;;;;5000894;28;20041;-86
2023/04/08 09:54:50;;;;;;;19.45;14.77;;;9.80;99.90;;;;;;4984713;28;20034;-86
2023/04/08 09:57:27;;;;;;;20.38;15.40;;;9.90;99.90;;;;;;5017234;28;20077;-85
2023/04/08 10:00:04;;;;;;;20.00;14.73;;;9.70;99.90;;;;;;4998796;28;20160;-86
2023/04/08 10:02:39;;;;;;;20.02;13.98;;;9.20;99.90;;;;;;5001632;28;20093;-85
2023/04/08 10:05:06;;;;;;;;;;;9.50;99.90;;;;;;5002766;28;20061;-85
2023/04/08 10:07:33;;;;;;;18.60;13.07;;;9.50;99.90;;;;;;4997903;28;20387;-87
2023/04/08 10:09:59;;;;;;;20.42;14.75;;;9.60;99.90;;;;;;4994767;28;20470;-85
2023/04/08 10:12:25;;;;;;;18.92;14.43;;;9.60;99.90;;;;;;4981855;28;20042;-85
2023/04/08 10:15:25;;;;;;;20.23;14.10;;;9.70;99.90;;;;;;4984630;28;20131;-85
2023/04/08 10:17:53;;;;;;;19.25;13.50;;;9.50;99.90;;;;;;4995607;28;20045;-86
2023/04/08 10:20:40;;;;;;;20.15;14.45;;;9.40;99.90;;;;;;4984793;28;20041;-86
2023/04/08 10:23:07;;;;;;;19.35;13.32;;;8.90;99.90;;;;;;5000851;28;20479;-85
2023/04/08 10:25:35;;;;;;;19.17;13.25;;;9.40;99.90;;;;;;4982299;28;20333;-86
2023/04/08 10:28:10;;;;;;;22.05;13.70;;;9.30;99.90;;;;;;5015735;28;20041;-86
2023/04/08 10:30:41;;;;;;;18.10;12.63;;;9.40;99.90;;;;;;5003166;28;20104;-86
2023/04/08 10:33:15;;;;;;;15.25;11.57;;;9.70;99.90;;;;;;5002201;28;20042;-86
2023/04/08 10:35:46;;;;;;;16.00;12.05;;;9.60;99.90;;;;;;4982867;28;20061;-86
2023/04/08 10:38:13;;;;;;;19.30;13.60;;;9.90;99.90;;;;;;4999102;28;20058;-86
2023/04/08 10:40:42;;;;;;;17.58;13.18;;;10.30;99.90;;;;;;5001163;28;20492;-86
2023/04/08 10:43:13;;;;;;;15.38;12.10;;;10.60;99.90;;;;;;4983750;28;20046;-85
2023/04/08 10:45:39;;;;;;;16.50;11.55;;;10.50;99.90;;;;;;4997858;28;20479;-86
2023/04/08 10:48:11;;;;;;;14.32;11.18;;;10.50;99.90;;;;;;5000176;28;20137;-86
2023/04/08 10:50:37;;;;;;;15.23;11.73;;;10.50;99.90;;;;;;4999955;28;20173;-86
2023/04/08 10:53:04;;;;;;;14.18;11.07;;;10.80;99.90;;;;;;4999094;28;20073;-85
2023/04/08 10:55:31;;;;;;;14.90;11.18;;;11.00;99.90;;;;;;4999254;28;20049;-86
2023/04/08 10:58:10;;;;;;;15.10;11.02;;;10.70;99.90;;;;;;4997177;28;20038;-85
2023/04/08 11:00:39;;;;;;;13.95;11.30;;;10.80;99.90;;;;;;4998729;28;20056;-86
2023/04/08 11:03:06;;;;;;;15.55;11.00;;;10.30;99.90;;;;;;4999773;28;20039;-84
2023/04/08 11:05:36;;;;;;;14.80;11.30;;;10.20;99.90;;;;;;5017351;28;20048;-85
2023/04/08 11:08:05;;;;;;;16.00;12.20;;;10.60;99.90;;;;;;4996352;28;20038;-86
2023/04/08 11:10:40;;;;;;;16.55;12.60;;;10.00;99.90;;;;;;4999103;28;20474;-85
2023/04/08 11:13:07;;;;;;;15.93;11.70;;;10.10;99.90;;;;;;5000558;28;20103;-85
2023/04/08 11:15:35;;;;;;;18.15;12.52;;;10.80;99.90;;;;;;5000542;28;20288;-85
2023/04/08 11:18:02;;;;;;;17.27;12.63;;;10.10;99.90;;;;;;4985166;28;20037;-86
2023/04/08 11:20:34;;;;;;;16.35;12.10;;;10.70;99.90;;;;;;4983960;28;20080;-85
2023/04/08 11:23:00;;;;;;;18.38;12.90;;;10.80;99.90;;;;;;4996058;28;20925;-85
2023/04/08 11:25:27;;;;;;;19.17;13.98;;;10.70;99.90;;;;;;4984605;28;20034;-87
2023/04/08 11:27:53;;;;;;;19.98;13.95;;;10.60;99.90;;;;;;5001831;28;20376;-86
2023/04/08 11:30:20;;;;;;;21.63;13.98;;;10.70;99.90;;;;;;5002765;28;20499;-86
2023/04/08 11:32:46;;;;;;;19.63;14.57;;;10.40;99.90;;;;;;5013845;28;20045;-85
2023/04/08 11:35:11;;;;;;;18.65;13.60;;;10.60;99.90;;;;;;5001330;28;20057;-85
2023/04/08 11:37:41;;;;;;;19.40;13.90;;;10.90;99.90;;;;;;4995630;28;20074;-86
2023/04/08 11:40:09;;;;;;;20.17;13.32;;;11.00;99.90;;;;;;4997524;28;20050;-85
2023/04/08 11:42:34;;;;;;;20.38;15.07;;;11.40;99.90;;;;;;4998189;28;20034;-86
2023/04/08 11:45:08;;;;;;;18.92;13.70;;;11.40;99.90;;;;;;4984609;28;20048;-87
2023/04/08 11:47:35;;;;;;;20.83;14.63;;;11.50;99.90;;;;;;5000688;28;20053;-84
2023/04/08 11:50:01;;;;;;;20.00;14.68;;;11.50;99.90;;;;;;4999294;28;20049;-86
2023/04/08 11:52:44;;;;;;;20.02;14.55;;;11.40;99.90;;;;;;4995915;28;20491;-87
2023/04/08 11:55:11;;;;;;;20.92;14.20;;;11.50;99.90;;;;;;4999958;28;20459;-86
2023/04/08 11:57:38;;;;;;;20.75;14.75;;;10.90;99.90;;;;;;4999491;28;20428;-87
2023/04/08 12:00:08;;;;;;;22.92;16.20;;;11.40;99.90;;;;;;5019189;28;20048;-86
2023/04/08 12:02:34;;;;;;;24.00;16.02;;;11.20;99.90;;;;;;4997300;28;20185;-86
2023/04/08 12:05:00;;;;;;;24.70;16.85;;;11.40;99.90;;;;;;4979651;28;20121;-86
2023/04/08 12:07:28;;;;;;;24.98;17.38;;;10.80;99.90;;;;;;4983891;28;20052;-86
2023/04/08 12:09:54;;;;;;;24.60;16.75;;;10.80;99.90;;;;;;4985106;28;20042;-85
2023/04/08 12:12:20;;;;;;;25.00;17.50;;;11.00;99.90;;;;;;4999173;28;20037;-85
2023/04/08 12:14:45;;;;;;;28.25;17.75;;;11.10;99.90;;;;;;4996814;28;20077;-85
2023/04/08 12:17:11;;;;;;;25.75;17.25;;;11.20;99.90;;;;;;4999708;28;20050;-85
2023/04/08 12:19:37;;;;;;;24.58;17.80;;;11.20;99.90;;;;;;4983093;28;20045;-86
2023/04/08 12:22:02;;;;;;;25.50;16.45;;;11.00;99.90;;;;;;4982639;28;20410;-85
2023/04/08 12:24:31;;;;;;;26.88;18.30;;;11.20;99.90;;;;;;4999728;28;20419;-85
2023/04/08 12:26:56;;;;;;;24.50;17.30;;;11.40;99.90;;;;;;5001825;28;20045;-85
2023/04/08 12:29:22;;;;;;;25.70;17.65;;;11.60;99.90;;;;;;4996460;28;20235;-85
2023/04/08 12:31:48;;;;;;;23.40;17.58;;;11.40;99.90;;;;;;5000522;28;20052;-85
2023/04/08 12:34:13;;;;;;;24.83;17.40;;;11.60;99.90;;;;;;4999402;28;20387;-85
2023/04/08 12:36:48;;;;;;;28.67;19.48;;;11.50;99.90;;;;;;5126004;27;20451;-86
2023/04/08 12:39:14;;;;;;;27.98;20.60;;;11.40;99.90;;;;;;5074067;28;20467;-84